Estació municipal de Les Masies de Roda (Osona, Ter)

Consulta les dades en temps real de l'estació municipal de Les Masies de Roda





Hora UTC 03:20
Temperatura 16.2 ºC
Sòl 15 cm 14.3 ºC
Humitat 94.6 %
Pressió 1020.7 hPa
Pluja 0.0 mm
Velocitat vent 0.0 km/h
Direcció vent NNE
Radiació solar 303.8 W/m²

Dades diàries 2026-09-02



Hora UTC (hivern +1h; estiu +2h)
Temperatura (ºC) Humitat (%) Pressió (hPa) Velocitat vent (km/h) Precipitació (mm) Radiació solar (W/m²)
Hora UTC Aire Sòl 15 cm Humitat Pressió Vel. Dir. Vel. Max Dir. Intent. màx 5 min. Rad. Sol.
00:05 18.5 16.0 87.5 1020.6 0.6 ENE 0.6 ENE 0.0 7.6
00:10 18.1 15.9 88.4 1020.6 0.0 NNE 0.0 ENE 0.0 7.7
00:15 18.1 15.7 90.3 1020.6 3.3 SSE 4.6 SSE 0.0 6.7
00:20 18.3 15.7 89.1 1020.6 0.1 SE 2.5 SE 0.0 7.5
00:25 18.1 15.7 89.9 1020.6 0.0 NNE 0.0 SE 0.0 157.4
00:30 18.0 15.7 90.1 1020.7 0.1 SW 2.8 SW 0.0 197.7
00:35 17.7 15.6 90.2 1020.7 1.4 WSW 2.5 SW 0.0 204.6
00:40 17.8 15.5 91.5 1020.8 0.2 NW 1.8 WNW 0.0 215.9
00:45 18.1 15.5 91.1 1020.7 0.3 SE 3.2 SE 0.0 207.4
00:50 18.1 15.6 89.7 1020.8 0.0 ESE 1.4 SE 0.0 210.3
00:55 17.8 15.5 90.2 1020.7 0.0 NNE 0.0 S 0.0 226.7
01:00 17.8 15.5 91.3 1020.7 0.1 NNE 1.8 NNE 0.0 217.7
01:05 17.6 15.3 90.0 1020.5 0.0 NNE 0.0 N 0.0 180.0
01:10 17.3 15.2 90.4 1020.7 0.0 NNE 0.0 N 0.0 182.8
01:15 17.1 15.1 91.5 1020.5 0.0 NNE 0.0 N 0.0 267.9
01:20 17.2 15.1 91.8 1020.7 0.0 NNE 0.0 N 0.0 275.9
01:25 17.0 15.0 91.8 1020.5 0.0 NNE 0.0 N 0.0 283.4
01:30 16.9 14.9 92.5 1020.7 0.0 NNE 0.0 N 0.0 270.1
01:35 17.1 14.9 93.3 1020.6 0.0 NNE 0.0 N 0.0 294.3
01:40 17.1 14.9 93.3 1020.6 0.0 NNE 0.0 NNE 0.0 290.6
01:45 17.2 15.0 92.9 1020.6 0.3 NNE 2.1 NNE 0.0 308.5
01:50 17.0 15.0 92.4 1020.7 0.0 NNE 0.0 NNE 0.0 300.3
01:55 16.9 14.9 93.1 1020.6 0.3 NW 2.1 NW 0.0 325.6
02:00 16.7 14.7 93.3 1020.7 0.0 NNE 0.0 NW 0.0 317.3
02:05 16.6 14.7 93.5 1020.6 0.4 NE 2.1 NE 0.0 325.0
02:10 16.7 14.6 94.2 1020.6 1.8 ENE 3.5 ENE 0.0 317.0
02:15 16.7 14.6 93.9 1020.6 2.1 NE 3.2 ENE 0.0 332.7
02:20 16.6 14.6 93.9 1020.6 1.1 ENE 2.8 ENE 0.0 311.4
02:25 16.7 14.7 93.9 1020.7 0.0 NNE 0.0 NE 0.0 324.0
02:30 16.4 14.6 93.0 1020.6 0.5 N 2.1 N 0.0 298.3
02:35 16.4 14.4 93.8 1020.7 0.0 NNE 0.0 N 0.0 297.9
02:40 16.5 14.4 94.3 1020.6 0.0 NNE 0.0 N 0.0 313.0
02:45 16.6 14.4 94.5 1020.7 0.0 NNE 0.0 N 0.0 297.9
02:50 16.5 14.4 94.1 1020.6 0.0 NNE 0.0 N 0.0 310.4
02:55 16.4 14.3 94.4 1020.7 0.0 NNE 0.0 N 0.0 299.9
03:00 16.4 14.3 94.7 1020.6 0.0 NNE 0.0 N 0.0 290.0
03:05 16.2 14.3 94.6 1020.7 0.0 NNE 0.0 N 0.0 310.6
03:10 16.2 14.2 95.1 1020.6 0.0 NNE 0.0 N 0.0 311.4
03:15 16.3 14.2 95.1 1020.7 0.0 NNE 0.0 N 0.0 357.3
03:20 16.2 14.3 94.6 1020.7 0.0 NNE 0.0 N 0.0 303.8
Màxima 18.5 16.0 95.1 1020.8 3.3 SSE 4.6 SSE 0.0 357.3
Mínima 16.2 14.2 87.5 1020.5
Total 0.0